sensor_id;sensor_type;location;lat;lon;timestamp;temperature;humidity
37806;DHT22;25082;50.870;0.022;2022-10-14T00:01:38;20.10;70.20
37806;DHT22;25082;50.870;0.022;2022-10-14T00:04:04;20.10;70.10
37806;DHT22;25082;50.870;0.022;2022-10-14T00:06:32;20.10;70.20
37806;DHT22;25082;50.870;0.022;2022-10-14T00:09:05;20.10;70.10
37806;DHT22;25082;50.870;0.022;2022-10-14T00:11:33;20.10;70.10
37806;DHT22;25082;50.870;0.022;2022-10-14T00:14:03;20.10;70.10
37806;DHT22;25082;50.870;0.022;2022-10-14T00:16:32;20.10;70.00
37806;DHT22;25082;50.870;0.022;2022-10-14T00:18:58;20.10;70.00
37806;DHT22;25082;50.870;0.022;2022-10-14T00:21:25;20.10;70.00
37806;DHT22;25082;50.870;0.022;2022-10-14T00:23:51;20.10;70.00
37806;DHT22;25082;50.870;0.022;2022-10-14T00:26:27;20.10;70.00
37806;DHT22;25082;50.870;0.022;2022-10-14T00:28:54;20.10;70.00
37806;DHT22;25082;50.870;0.022;2022-10-14T00:31:20;20.10;69.90
37806;DHT22;25082;50.870;0.022;2022-10-14T00:33:46;20.10;69.90
37806;DHT22;25082;50.870;0.022;2022-10-14T00:36:14;20.00;69.80
37806;DHT22;25082;50.870;0.022;2022-10-14T00:38:40;20.00;69.80
37806;DHT22;25082;50.870;0.022;2022-10-14T00:41:07;20.00;69.80
37806;DHT22;25082;50.870;0.022;2022-10-14T00:46:31;20.00;69.80
37806;DHT22;25082;50.870;0.022;2022-10-14T00:49:02;20.00;69.70
37806;DHT22;25082;50.870;0.022;2022-10-14T00:51:28;20.00;69.70
37806;DHT22;25082;50.870;0.022;2022-10-14T00:53:54;20.00;69.70
37806;DHT22;25082;50.870;0.022;2022-10-14T00:56:24;20.00;69.70
37806;DHT22;25082;50.870;0.022;2022-10-14T00:58:52;20.00;69.70
37806;DHT22;25082;50.870;0.022;2022-10-14T01:01:17;20.00;69.70
37806;DHT22;25082;50.870;0.022;2022-10-14T01:03:43;20.00;69.70
37806;DHT22;25082;50.870;0.022;2022-10-14T01:09:07;20.00;69.70
37806;DHT22;25082;50.870;0.022;2022-10-14T01:28:54;19.90;69.50
37806;DHT22;25082;50.870;0.022;2022-10-14T01:31:31;19.90;69.50
37806;DHT22;25082;50.870;0.022;2022-10-14T01:34:01;19.90;69.40
37806;DHT22;25082;50.870;0.022;2022-10-14T01:36:36;19.90;69.40
37806;DHT22;25082;50.870;0.022;2022-10-14T01:39:14;19.90;69.40
37806;DHT22;25082;50.870;0.022;2022-10-14T01:41:51;19.90;69.40
37806;DHT22;25082;50.870;0.022;2022-10-14T01:44:19;19.90;69.40
37806;DHT22;25082;50.870;0.022;2022-10-14T01:46:51;19.90;69.40
37806;DHT22;25082;50.870;0.022;2022-10-14T01:49:30;19.90;69.40
37806;DHT22;25082;50.870;0.022;2022-10-14T01:52:12;19.90;69.40
37806;DHT22;25082;50.870;0.022;2022-10-14T01:54:41;19.90;69.30
37806;DHT22;25082;50.870;0.022;2022-10-14T01:57:10;19.90;69.30
37806;DHT22;25082;50.870;0.022;2022-10-14T01:59:39;19.90;69.30
37806;DHT22;25082;50.870;0.022;2022-10-14T02:02:05;19.90;69.30
37806;DHT22;25082;50.870;0.022;2022-10-14T02:04:31;19.90;69.30
37806;DHT22;25082;50.870;0.022;2022-10-14T02:07:20;19.90;69.30
37806;DHT22;25082;50.870;0.022;2022-10-14T02:12:36;19.90;69.30
37806;DHT22;25082;50.870;0.022;2022-10-14T02:23:00;19.90;69.20
37806;DHT22;25082;50.870;0.022;2022-10-14T02:25:34;19.90;69.20
37806;DHT22;25082;50.870;0.022;2022-10-14T02:28:00;19.80;69.10
37806;DHT22;25082;50.870;0.022;2022-10-14T02:30:31;19.80;69.10
37806;DHT22;25082;50.870;0.022;2022-10-14T02:32:59;19.90;69.10
37806;DHT22;25082;50.870;0.022;2022-10-14T02:35:25;19.80;69.10
37806;DHT22;25082;50.870;0.022;2022-10-14T02:37:52;19.90;69.10
37806;DHT22;25082;50.870;0.022;2022-10-14T02:40:34;19.80;69.10
37806;DHT22;25082;50.870;0.022;2022-10-14T02:43:01;19.80;69.10
37806;DHT22;25082;50.870;0.022;2022-10-14T02:45:27;19.80;69.10
37806;DHT22;25082;50.870;0.022;2022-10-14T02:47:53;19.80;69.10
37806;DHT22;25082;50.870;0.022;2022-10-14T02:50:20;19.80;69.10
37806;DHT22;25082;50.870;0.022;2022-10-14T02:52:46;19.80;69.10
37806;DHT22;25082;50.870;0.022;2022-10-14T02:55:12;19.80;69.00
37806;DHT22;25082;50.870;0.022;2022-10-14T02:57:37;19.80;69.00
37806;DHT22;25082;50.870;0.022;2022-10-14T03:00:04;19.80;69.00
37806;DHT22;25082;50.870;0.022;2022-10-14T03:02:31;19.80;69.00
37806;DHT22;25082;50.870;0.022;2022-10-14T03:04:56;19.80;69.00
37806;DHT22;25082;50.870;0.022;2022-10-14T03:07:23;19.80;69.00
37806;DHT22;25082;50.870;0.022;2022-10-14T03:09:49;19.80;69.00
37806;DHT22;25082;50.870;0.022;2022-10-14T03:12:15;19.80;69.00
37806;DHT22;25082;50.870;0.022;2022-10-14T03:14:41;19.80;69.00
37806;DHT22;25082;50.870;0.022;2022-10-14T03:17:07;19.80;69.00
37806;DHT22;25082;50.870;0.022;2022-10-14T03:19:33;19.70;68.90
37806;DHT22;25082;50.870;0.022;2022-10-14T03:21:59;19.80;69.00
37806;DHT22;25082;50.870;0.022;2022-10-14T03:24:25;19.80;69.00
37806;DHT22;25082;50.870;0.022;2022-10-14T03:26:50;19.80;69.00
37806;DHT22;25082;50.870;0.022;2022-10-14T03:29:16;19.80;69.00
37806;DHT22;25082;50.870;0.022;2022-10-14T03:31:42;19.80;69.00
37806;DHT22;25082;50.870;0.022;2022-10-14T03:34:07;19.70;68.90
37806;DHT22;25082;50.870;0.022;2022-10-14T03:36:33;19.70;68.90
37806;DHT22;25082;50.870;0.022;2022-10-14T03:38:59;19.80;68.90
37806;DHT22;25082;50.870;0.022;2022-10-14T03:41:25;19.70;68.80
37806;DHT22;25082;50.870;0.022;2022-10-14T03:43:51;19.70;69.40
37806;DHT22;25082;50.870;0.022;2022-10-14T03:46:17;19.70;68.80
37806;DHT22;25082;50.870;0.022;2022-10-14T03:48:42;19.70;68.80
37806;DHT22;25082;50.870;0.022;2022-10-14T03:51:08;19.70;68.80
37806;DHT22;25082;50.870;0.022;2022-10-14T03:53:34;19.70;68.80
37806;DHT22;25082;50.870;0.022;2022-10-14T03:56:00;19.70;68.80
37806;DHT22;25082;50.870;0.022;2022-10-14T03:58:26;19.70;68.80
37806;DHT22;25082;50.870;0.022;2022-10-14T04:00:51;19.70;68.80
37806;DHT22;25082;50.870;0.022;2022-10-14T04:03:17;19.80;68.90
37806;DHT22;25082;50.870;0.022;2022-10-14T04:05:43;19.70;68.80
37806;DHT22;25082;50.870;0.022;2022-10-14T04:08:09;19.70;69.10
37806;DHT22;25082;50.870;0.022;2022-10-14T04:10:34;19.70;68.80
37806;DHT22;25082;50.870;0.022;2022-10-14T04:13:00;19.70;68.80
37806;DHT22;25082;50.870;0.022;2022-10-14T04:15:26;19.70;68.80
37806;DHT22;25082;50.870;0.022;2022-10-14T04:17:52;19.70;68.80
37806;DHT22;25082;50.870;0.022;2022-10-14T04:20:18;19.70;68.70
37806;DHT22;25082;50.870;0.022;2022-10-14T04:22:44;19.70;68.70
37806;DHT22;25082;50.870;0.022;2022-10-14T04:25:09;19.70;68.70
37806;DHT22;25082;50.870;0.022;2022-10-14T04:27:35;19.70;68.70
37806;DHT22;25082;50.870;0.022;2022-10-14T04:30:01;19.70;68.70
37806;DHT22;25082;50.870;0.022;2022-10-14T04:32:27;19.70;68.70
37806;DHT22;25082;50.870;0.022;2022-10-14T04:34:52;19.70;68.70
37806;DHT22;25082;50.870;0.022;2022-10-14T04:37:19;19.70;68.70
37806;DHT22;25082;50.870;0.022;2022-10-14T04:39:45;19.70;68.70
37806;DHT22;25082;50.870;0.022;2022-10-14T04:42:11;19.60;68.60
37806;DHT22;25082;50.870;0.022;2022-10-14T04:44:36;19.70;68.70
37806;DHT22;25082;50.870;0.022;2022-10-14T04:47:03;19.60;68.60
37806;DHT22;25082;50.870;0.022;2022-10-14T04:49:28;19.60;68.60
37806;DHT22;25082;50.870;0.022;2022-10-14T04:51:54;19.60;68.60
37806;DHT22;25082;50.870;0.022;2022-10-14T04:54:20;19.60;68.60
37806;DHT22;25082;50.870;0.022;2022-10-14T04:56:45;19.60;68.50
37806;DHT22;25082;50.870;0.022;2022-10-14T04:59:11;19.60;68.60
37806;DHT22;25082;50.870;0.022;2022-10-14T05:01:38;19.60;68.50
37806;DHT22;25082;50.870;0.022;2022-10-14T05:04:04;19.60;68.60
37806;DHT22;25082;50.870;0.022;2022-10-14T05:06:30;19.60;68.60
37806;DHT22;25082;50.870;0.022;2022-10-14T05:08:56;19.60;68.60
37806;DHT22;25082;50.870;0.022;2022-10-14T05:11:21;19.60;68.60
37806;DHT22;25082;50.870;0.022;2022-10-14T05:13:47;19.60;68.50
37806;DHT22;25082;50.870;0.022;2022-10-14T05:16:13;19.60;68.50
37806;DHT22;25082;50.870;0.022;2022-10-14T05:18:39;19.60;68.50
37806;DHT22;25082;50.870;0.022;2022-10-14T05:21:05;19.60;68.50
37806;DHT22;25082;50.870;0.022;2022-10-14T05:23:31;19.60;68.50
37806;DHT22;25082;50.870;0.022;2022-10-14T05:25:56;19.60;68.50
37806;DHT22;25082;50.870;0.022;2022-10-14T05:28:22;19.60;68.50
37806;DHT22;25082;50.870;0.022;2022-10-14T05:30:48;19.60;68.50
37806;DHT22;25082;50.870;0.022;2022-10-14T05:33:14;19.60;68.50
37806;DHT22;25082;50.870;0.022;2022-10-14T05:35:42;19.50;68.40
37806;DHT22;25082;50.870;0.022;2022-10-14T05:38:07;19.60;68.40
37806;DHT22;25082;50.870;0.022;2022-10-14T05:40:33;19.60;68.40
37806;DHT22;25082;50.870;0.022;2022-10-14T05:42:59;19.50;68.40
37806;DHT22;25082;50.870;0.022;2022-10-14T05:45:24;19.50;68.40
37806;DHT22;25082;50.870;0.022;2022-10-14T05:47:51;19.50;68.40
37806;DHT22;25082;50.870;0.022;2022-10-14T05:50:17;19.50;68.40
37806;DHT22;25082;50.870;0.022;2022-10-14T05:52:43;19.50;68.40
37806;DHT22;25082;50.870;0.022;2022-10-14T05:55:09;19.50;68.40
37806;DHT22;25082;50.870;0.022;2022-10-14T05:57:35;19.50;68.40
37806;DHT22;25082;50.870;0.022;2022-10-14T06:00:01;19.50;68.40
37806;DHT22;25082;50.870;0.022;2022-10-14T06:02:26;19.50;68.40
37806;DHT22;25082;50.870;0.022;2022-10-14T06:04:52;19.50;68.40
37806;DHT22;25082;50.870;0.022;2022-10-14T06:07:18;19.50;68.40
37806;DHT22;25082;50.870;0.022;2022-10-14T06:09:44;19.50;68.40
37806;DHT22;25082;50.870;0.022;2022-10-14T06:12:10;19.50;68.30
37806;DHT22;25082;50.870;0.022;2022-10-14T06:14:35;19.50;68.30
37806;DHT22;25082;50.870;0.022;2022-10-14T06:17:03;19.50;68.30
37806;DHT22;25082;50.870;0.022;2022-10-14T06:19:30;19.50;68.30
37806;DHT22;25082;50.870;0.022;2022-10-14T06:21:56;19.50;68.30
37806;DHT22;25082;50.870;0.022;2022-10-14T06:24:22;19.50;68.30
37806;DHT22;25082;50.870;0.022;2022-10-14T06:26:47;19.50;68.30
37806;DHT22;25082;50.870;0.022;2022-10-14T06:29:14;19.50;68.30
37806;DHT22;25082;50.870;0.022;2022-10-14T06:31:40;19.50;68.30
37806;DHT22;25082;50.870;0.022;2022-10-14T06:34:05;19.50;68.30
37806;DHT22;25082;50.870;0.022;2022-10-14T06:36:31;19.50;68.30
37806;DHT22;25082;50.870;0.022;2022-10-14T06:38:57;19.40;68.30
37806;DHT22;25082;50.870;0.022;2022-10-14T06:41:23;19.50;68.30
37806;DHT22;25082;50.870;0.022;2022-10-14T06:43:49;19.50;68.30
37806;DHT22;25082;50.870;0.022;2022-10-14T06:46:14;19.50;68.30
37806;DHT22;25082;50.870;0.022;2022-10-14T06:48:40;19.50;68.30
37806;DHT22;25082;50.870;0.022;2022-10-14T06:51:06;19.50;68.30
37806;DHT22;25082;50.870;0.022;2022-10-14T06:53:33;19.50;68.30
37806;DHT22;25082;50.870;0.022;2022-10-14T06:56:05;19.40;68.30
37806;DHT22;25082;50.870;0.022;2022-10-14T06:58:31;19.40;68.20
37806;DHT22;25082;50.870;0.022;2022-10-14T07:01:02;19.40;68.20
37806;DHT22;25082;50.870;0.022;2022-10-14T07:03:28;19.40;68.20
37806;DHT22;25082;50.870;0.022;2022-10-14T07:05:54;19.40;68.30
37806;DHT22;25082;50.870;0.022;2022-10-14T07:08:20;19.50;68.30
37806;DHT22;25082;50.870;0.022;2022-10-14T07:10:46;19.40;68.20
37806;DHT22;25082;50.870;0.022;2022-10-14T07:13:12;19.50;68.20
37806;DHT22;25082;50.870;0.022;2022-10-14T07:15:38;19.50;68.10
37806;DHT22;25082;50.870;0.022;2022-10-14T07:18:05;19.60;68.20
37806;DHT22;25082;50.870;0.022;2022-10-14T07:20:32;19.60;68.10
37806;DHT22;25082;50.870;0.022;2022-10-14T07:22:58;19.60;68.00
37806;DHT22;25082;50.870;0.022;2022-10-14T07:25:24;19.60;68.00
37806;DHT22;25082;50.870;0.022;2022-10-14T07:27:52;19.70;68.00
37806;DHT22;25082;50.870;0.022;2022-10-14T07:30:18;19.70;67.90
37806;DHT22;25082;50.870;0.022;2022-10-14T07:32:44;19.70;67.90
37806;DHT22;25082;50.870;0.022;2022-10-14T07:35:10;19.70;67.90
37806;DHT22;25082;50.870;0.022;2022-10-14T07:37:36;19.80;68.00
37806;DHT22;25082;50.870;0.022;2022-10-14T07:40:03;19.70;67.90
37806;DHT22;25082;50.870;0.022;2022-10-14T07:42:29;19.50;67.80
37806;DHT22;25082;50.870;0.022;2022-10-14T07:44:55;19.70;67.90
37806;DHT22;25082;50.870;0.022;2022-10-14T07:47:22;19.80;67.90
37806;DHT22;25082;50.870;0.022;2022-10-14T07:49:48;19.80;68.00
37806;DHT22;25082;50.870;0.022;2022-10-14T07:52:14;19.80;68.00
37806;DHT22;25082;50.870;0.022;2022-10-14T07:54:40;19.80;68.00
37806;DHT22;25082;50.870;0.022;2022-10-14T07:57:06;19.80;67.90
37806;DHT22;25082;50.870;0.022;2022-10-14T07:59:32;19.80;68.00
37806;DHT22;25082;50.870;0.022;2022-10-14T08:01:58;19.80;68.00
37806;DHT22;25082;50.870;0.022;2022-10-14T08:04:24;19.80;68.00
37806;DHT22;25082;50.870;0.022;2022-10-14T08:06:50;19.90;68.10
37806;DHT22;25082;50.870;0.022;2022-10-14T08:09:17;19.80;68.00
37806;DHT22;25082;50.870;0.022;2022-10-14T08:11:44;19.80;68.10
37806;DHT22;25082;50.870;0.022;2022-10-14T08:14:10;19.90;68.10
37806;DHT22;25082;50.870;0.022;2022-10-14T08:16:36;19.90;68.20
37806;DHT22;25082;50.870;0.022;2022-10-14T08:19:10;19.90;68.20
37806;DHT22;25082;50.870;0.022;2022-10-14T08:21:35;19.90;68.20
37806;DHT22;25082;50.870;0.022;2022-10-14T08:24:01;19.90;68.20
37806;DHT22;25082;50.870;0.022;2022-10-14T08:26:28;19.90;68.10
37806;DHT22;25082;50.870;0.022;2022-10-14T08:28:59;19.90;68.20
37806;DHT22;25082;50.870;0.022;2022-10-14T08:31:26;19.90;68.20
37806;DHT22;25082;50.870;0.022;2022-10-14T08:33:52;19.90;68.30
37806;DHT22;25082;50.870;0.022;2022-10-14T08:36:19;19.90;68.20
37806;DHT22;25082;50.870;0.022;2022-10-14T08:38:45;19.90;68.20
37806;DHT22;25082;50.870;0.022;2022-10-14T08:43:49;20.00;68.40
37806;DHT22;25082;50.870;0.022;2022-10-14T08:48:43;20.00;68.40
37806;DHT22;25082;50.870;0.022;2022-10-14T08:51:12;20.00;68.50
37806;DHT22;25082;50.870;0.022;2022-10-14T08:53:45;20.00;68.50
37806;DHT22;25082;50.870;0.022;2022-10-14T08:56:12;20.00;68.50
37806;DHT22;25082;50.870;0.022;2022-10-14T08:58:43;20.10;68.60
37806;DHT22;25082;50.870;0.022;2022-10-14T09:01:13;20.00;68.60
37806;DHT22;25082;50.870;0.022;2022-10-14T09:03:41;20.00;68.60
37806;DHT22;25082;50.870;0.022;2022-10-14T09:06:12;20.10;68.70
37806;DHT22;25082;50.870;0.022;2022-10-14T09:08:42;20.10;68.70
37806;DHT22;25082;50.870;0.022;2022-10-14T09:11:18;20.10;68.80
37806;DHT22;25082;50.870;0.022;2022-10-14T09:13:56;20.10;68.80
37806;DHT22;25082;50.870;0.022;2022-10-14T09:16:27;20.10;68.70
37806;DHT22;25082;50.870;0.022;2022-10-14T09:18:55;20.10;68.80
37806;DHT22;25082;50.870;0.022;2022-10-14T09:26:38;20.20;68.80
37806;DHT22;25082;50.870;0.022;2022-10-14T09:29:27;20.20;68.80
37806;DHT22;25082;50.870;0.022;2022-10-14T09:32:05;20.10;68.70
37806;DHT22;25082;50.870;0.022;2022-10-14T09:34:44;20.20;68.80
37806;DHT22;25082;50.870;0.022;2022-10-14T09:37:30;20.20;69.20
37806;DHT22;25082;50.870;0.022;2022-10-14T09:40:13;20.20;68.90
37806;DHT22;25082;50.870;0.022;2022-10-14T09:50:53;20.20;69.20
37806;DHT22;25082;50.870;0.022;2022-10-14T09:53:53;20.20;69.20
37806;DHT22;25082;50.870;0.022;2022-10-14T09:58:54;20.30;69.80
37806;DHT22;25082;50.870;0.022;2022-10-14T10:01:24;20.30;69.60
37806;DHT22;25082;50.870;0.022;2022-10-14T10:03:51;20.30;69.50
37806;DHT22;25082;50.870;0.022;2022-10-14T10:06:20;20.30;69.50
37806;DHT22;25082;50.870;0.022;2022-10-14T10:08:55;20.30;69.40
37806;DHT22;25082;50.870;0.022;2022-10-14T10:11:35;20.30;69.40
37806;DHT22;25082;50.870;0.022;2022-10-14T10:14:22;20.30;69.50
37806;DHT22;25082;50.870;0.022;2022-10-14T10:17:11;20.30;69.60
37806;DHT22;25082;50.870;0.022;2022-10-14T10:19:42;20.30;69.80
37806;DHT22;25082;50.870;0.022;2022-10-14T10:24:42;20.40;69.90
37806;DHT22;25082;50.870;0.022;2022-10-14T10:27:24;20.30;69.80
37806;DHT22;25082;50.870;0.022;2022-10-14T10:29:50;20.40;70.20
37806;DHT22;25082;50.870;0.022;2022-10-14T10:32:38;20.40;70.10
37806;DHT22;25082;50.870;0.022;2022-10-14T10:35:28;20.40;70.60
37806;DHT22;25082;50.870;0.022;2022-10-14T10:40:53;20.30;70.80
37806;DHT22;25082;50.870;0.022;2022-10-14T10:51:34;20.30;70.90
37806;DHT22;25082;50.870;0.022;2022-10-14T10:56:56;20.30;70.70
37806;DHT22;25082;50.870;0.022;2022-10-14T10:59:38;20.30;71.00
37806;DHT22;25082;50.870;0.022;2022-10-14T11:13:55;20.30;71.60
37806;DHT22;25082;50.870;0.022;2022-10-14T11:19:15;20.30;71.60
37806;DHT22;25082;50.870;0.022;2022-10-14T11:27:18;20.30;72.40
37806;DHT22;25082;50.870;0.022;2022-10-14T11:35:37;20.30;72.30
37806;DHT22;25082;50.870;0.022;2022-10-14T11:44:26;20.30;72.30
37806;DHT22;25082;50.870;0.022;2022-10-14T11:46:56;20.30;72.20
37806;DHT22;25082;50.870;0.022;2022-10-14T11:49:35;20.30;72.50
37806;DHT22;25082;50.870;0.022;2022-10-14T11:52:06;20.30;72.20
37806;DHT22;25082;50.870;0.022;2022-10-14T11:57:06;20.30;72.40
37806;DHT22;25082;50.870;0.022;2022-10-14T12:08:20;20.30;72.00
37806;DHT22;25082;50.870;0.022;2022-10-14T12:10:58;20.30;72.10
37806;DHT22;25082;50.870;0.022;2022-10-14T12:13:33;20.30;72.00
37806;DHT22;25082;50.870;0.022;2022-10-14T12:16:02;20.30;72.30
37806;DHT22;25082;50.870;0.022;2022-10-14T12:18:30;20.30;72.20
37806;DHT22;25082;50.870;0.022;2022-10-14T12:23:42;20.30;72.00
37806;DHT22;25082;50.870;0.022;2022-10-14T12:26:44;20.30;72.10
37806;DHT22;25082;50.870;0.022;2022-10-14T12:29:36;20.30;72.00
37806;DHT22;25082;50.870;0.022;2022-10-14T12:34:39;20.30;72.10
37806;DHT22;25082;50.870;0.022;2022-10-14T12:42:28;20.30;72.10
37806;DHT22;25082;50.870;0.022;2022-10-14T12:44:57;20.30;72.40
37806;DHT22;25082;50.870;0.022;2022-10-14T12:47:33;20.30;72.50
37806;DHT22;25082;50.870;0.022;2022-10-14T12:50:02;20.30;72.50
37806;DHT22;25082;50.870;0.022;2022-10-14T12:52:34;20.30;72.50
37806;DHT22;25082;50.870;0.022;2022-10-14T12:55:07;20.20;72.60
37806;DHT22;25082;50.870;0.022;2022-10-14T12:57:35;20.30;72.60
37806;DHT22;25082;50.870;0.022;2022-10-14T13:02:54;20.20;72.50
37806;DHT22;25082;50.870;0.022;2022-10-14T13:05:41;20.30;72.60
37806;DHT22;25082;50.870;0.022;2022-10-14T13:24:14;20.20;72.60
37806;DHT22;25082;50.870;0.022;2022-10-14T13:29:16;20.20;72.60
37806;DHT22;25082;50.870;0.022;2022-10-14T13:39:53;20.20;72.50
37806;DHT22;25082;50.870;0.022;2022-10-14T13:42:27;20.20;72.50
37806;DHT22;25082;50.870;0.022;2022-10-14T13:45:02;20.20;72.50
37806;DHT22;25082;50.870;0.022;2022-10-14T13:47:29;20.20;72.40
37806;DHT22;25082;50.870;0.022;2022-10-14T13:49:55;20.20;73.10
37806;DHT22;25082;50.870;0.022;2022-10-14T13:52:25;20.20;72.50
37806;DHT22;25082;50.870;0.022;2022-10-14T13:55:15;20.20;72.60
37806;DHT22;25082;50.870;0.022;2022-10-14T13:57:41;20.20;72.60
37806;DHT22;25082;50.870;0.022;2022-10-14T14:00:30;20.20;72.60
37806;DHT22;25082;50.870;0.022;2022-10-14T14:02:57;20.20;72.50
37806;DHT22;25082;50.870;0.022;2022-10-14T14:05:24;20.20;72.60
37806;DHT22;25082;50.870;0.022;2022-10-14T14:07:51;20.20;72.60
37806;DHT22;25082;50.870;0.022;2022-10-14T14:10:21;20.20;72.50
37806;DHT22;25082;50.870;0.022;2022-10-14T14:12:48;20.20;72.70
37806;DHT22;25082;50.870;0.022;2022-10-14T14:15:24;20.20;72.70
37806;DHT22;25082;50.870;0.022;2022-10-14T14:17:50;20.20;72.60
37806;DHT22;25082;50.870;0.022;2022-10-14T14:20:24;20.20;72.70
37806;DHT22;25082;50.870;0.022;2022-10-14T14:22:50;20.10;72.60
37806;DHT22;25082;50.870;0.022;2022-10-14T14:25:24;20.10;73.20
37806;DHT22;25082;50.870;0.022;2022-10-14T14:27:58;20.20;72.80
37806;DHT22;25082;50.870;0.022;2022-10-14T14:30:33;20.20;72.70
37806;DHT22;25082;50.870;0.022;2022-10-14T14:33:20;20.20;72.60
37806;DHT22;25082;50.870;0.022;2022-10-14T14:35:58;20.20;72.70
37806;DHT22;25082;50.870;0.022;2022-10-14T14:38:32;20.20;72.60
37806;DHT22;25082;50.870;0.022;2022-10-14T14:43:29;20.20;72.70
37806;DHT22;25082;50.870;0.022;2022-10-14T14:45:57;20.20;72.60
37806;DHT22;25082;50.870;0.022;2022-10-14T14:48:25;20.20;72.80
37806;DHT22;25082;50.870;0.022;2022-10-14T14:50:52;20.20;72.70
37806;DHT22;25082;50.870;0.022;2022-10-14T14:53:20;20.20;72.80
37806;DHT22;25082;50.870;0.022;2022-10-14T14:58:43;20.20;72.80
37806;DHT22;25082;50.870;0.022;2022-10-14T15:01:26;20.20;73.10
37806;DHT22;25082;50.870;0.022;2022-10-14T15:03:58;20.10;72.80
37806;DHT22;25082;50.870;0.022;2022-10-14T15:06:25;20.20;72.80
37806;DHT22;25082;50.870;0.022;2022-10-14T15:08:53;20.20;72.80
37806;DHT22;25082;50.870;0.022;2022-10-14T15:11:21;20.20;72.90
37806;DHT22;25082;50.870;0.022;2022-10-14T15:13:56;20.10;72.90
37806;DHT22;25082;50.870;0.022;2022-10-14T15:16:40;20.10;73.40
37806;DHT22;25082;50.870;0.022;2022-10-14T15:21:45;20.20;73.20
37806;DHT22;25082;50.870;0.022;2022-10-14T15:24:15;20.20;73.00
37806;DHT22;25082;50.870;0.022;2022-10-14T15:26:43;20.20;73.50
37806;DHT22;25082;50.870;0.022;2022-10-14T15:29:16;20.20;73.30
37806;DHT22;25082;50.870;0.022;2022-10-14T15:32:05;20.20;73.40
37806;DHT22;25082;50.870;0.022;2022-10-14T15:34:33;20.20;73.10
37806;DHT22;25082;50.870;0.022;2022-10-14T15:37:00;20.30;73.30
37806;DHT22;25082;50.870;0.022;2022-10-14T15:39:25;20.20;73.30
37806;DHT22;25082;50.870;0.022;2022-10-14T15:41:51;20.20;73.30
37806;DHT22;25082;50.870;0.022;2022-10-14T15:44:17;20.20;73.20
37806;DHT22;25082;50.870;0.022;2022-10-14T15:46:44;20.20;73.20
37806;DHT22;25082;50.870;0.022;2022-10-14T15:49:40;20.20;73.20
37806;DHT22;25082;50.870;0.022;2022-10-14T15:52:08;20.20;72.90
37806;DHT22;25082;50.870;0.022;2022-10-14T15:54:37;20.20;73.30
37806;DHT22;25082;50.870;0.022;2022-10-14T15:57:03;20.20;73.10
37806;DHT22;25082;50.870;0.022;2022-10-14T15:59:30;20.30;73.30
37806;DHT22;25082;50.870;0.022;2022-10-14T16:01:56;20.30;73.20
37806;DHT22;25082;50.870;0.022;2022-10-14T16:04:23;20.20;73.20
37806;DHT22;25082;50.870;0.022;2022-10-14T16:06:53;20.20;73.10
37806;DHT22;25082;50.870;0.022;2022-10-14T16:09:23;20.30;73.20
37806;DHT22;25082;50.870;0.022;2022-10-14T16:11:51;20.20;73.20
37806;DHT22;25082;50.870;0.022;2022-10-14T16:14:25;20.30;73.10
37806;DHT22;25082;50.870;0.022;2022-10-14T16:16:52;20.30;73.30
37806;DHT22;25082;50.870;0.022;2022-10-14T16:19:18;20.20;73.20
37806;DHT22;25082;50.870;0.022;2022-10-14T16:21:43;20.20;73.20
37806;DHT22;25082;50.870;0.022;2022-10-14T16:24:18;20.20;73.30
37806;DHT22;25082;50.870;0.022;2022-10-14T16:26:45;20.30;73.20
37806;DHT22;25082;50.870;0.022;2022-10-14T16:29:13;20.20;73.20
37806;DHT22;25082;50.870;0.022;2022-10-14T16:31:39;20.30;73.20
37806;DHT22;25082;50.870;0.022;2022-10-14T16:34:05;20.30;73.30
37806;DHT22;25082;50.870;0.022;2022-10-14T16:36:31;20.20;73.20
37806;DHT22;25082;50.870;0.022;2022-10-14T16:38:57;20.20;73.10
37806;DHT22;25082;50.870;0.022;2022-10-14T16:41:25;20.20;73.20
37806;DHT22;25082;50.870;0.022;2022-10-14T16:43:51;20.30;73.20
37806;DHT22;25082;50.870;0.022;2022-10-14T16:46:16;20.30;73.20
37806;DHT22;25082;50.870;0.022;2022-10-14T16:48:42;20.30;73.20
37806;DHT22;25082;50.870;0.022;2022-10-14T16:51:08;20.20;73.20
37806;DHT22;25082;50.870;0.022;2022-10-14T16:53:34;20.20;73.20
37806;DHT22;25082;50.870;0.022;2022-10-14T16:56:12;20.20;73.10
37806;DHT22;25082;50.870;0.022;2022-10-14T16:58:56;20.20;72.90
37806;DHT22;25082;50.870;0.022;2022-10-14T17:01:23;20.20;73.20
37806;DHT22;25082;50.870;0.022;2022-10-14T17:03:48;20.20;73.20
37806;DHT22;25082;50.870;0.022;2022-10-14T17:06:14;20.30;73.20
37806;DHT22;25082;50.870;0.022;2022-10-14T17:08:41;20.30;73.30
37806;DHT22;25082;50.870;0.022;2022-10-14T17:11:08;20.20;73.40
37806;DHT22;25082;50.870;0.022;2022-10-14T17:13:39;20.30;73.50
37806;DHT22;25082;50.870;0.022;2022-10-14T17:16:05;20.20;73.50
37806;DHT22;25082;50.870;0.022;2022-10-14T17:18:32;20.30;73.70
37806;DHT22;25082;50.870;0.022;2022-10-14T17:21:05;20.30;73.60
37806;DHT22;25082;50.870;0.022;2022-10-14T17:23:32;20.30;73.70
37806;DHT22;25082;50.870;0.022;2022-10-14T17:25:59;20.30;73.70
37806;DHT22;25082;50.870;0.022;2022-10-14T17:28:26;20.20;73.50
37806;DHT22;25082;50.870;0.022;2022-10-14T17:30:52;20.30;73.60
37806;DHT22;25082;50.870;0.022;2022-10-14T17:33:17;20.20;73.40
37806;DHT22;25082;50.870;0.022;2022-10-14T17:35:43;20.20;73.30
37806;DHT22;25082;50.870;0.022;2022-10-14T17:38:09;20.20;73.40
37806;DHT22;25082;50.870;0.022;2022-10-14T17:40:35;20.20;73.40
37806;DHT22;25082;50.870;0.022;2022-10-14T17:43:00;20.30;73.40
37806;DHT22;25082;50.870;0.022;2022-10-14T17:45:26;20.20;73.30
37806;DHT22;25082;50.870;0.022;2022-10-14T17:47:53;20.20;73.40
37806;DHT22;25082;50.870;0.022;2022-10-14T17:50:19;20.20;73.30
37806;DHT22;25082;50.870;0.022;2022-10-14T17:52:45;20.20;73.50
37806;DHT22;25082;50.870;0.022;2022-10-14T17:55:11;20.20;73.60
37806;DHT22;25082;50.870;0.022;2022-10-14T17:57:37;20.30;73.70
37806;DHT22;25082;50.870;0.022;2022-10-14T18:00:03;20.20;73.60
37806;DHT22;25082;50.870;0.022;2022-10-14T18:02:29;20.20;73.60
37806;DHT22;25082;50.870;0.022;2022-10-14T18:04:54;20.20;73.40
37806;DHT22;25082;50.870;0.022;2022-10-14T18:07:20;20.20;73.50
37806;DHT22;25082;50.870;0.022;2022-10-14T18:09:47;20.20;73.50
37806;DHT22;25082;50.870;0.022;2022-10-14T18:12:15;20.20;73.30
37806;DHT22;25082;50.870;0.022;2022-10-14T18:14:41;20.30;73.50
37806;DHT22;25082;50.870;0.022;2022-10-14T18:17:08;20.30;74.00
37806;DHT22;25082;50.870;0.022;2022-10-14T18:19:38;20.20;73.60
37806;DHT22;25082;50.870;0.022;2022-10-14T18:22:06;20.30;73.50
37806;DHT22;25082;50.870;0.022;2022-10-14T18:24:32;20.20;73.50